Anchor Point, Alaska
Current Conditions -  °F | °C
As of 12:53 PM on Sunday 23 Nov 2014 (Local Time) from PAHO Reporting Station
Broken Clouds Broken Clouds  
Wind Chill:   Ceiling: 8000
Heat Index:   Visibility: 10mi
Dew Point:   Wind: 3mph
Humidity: 79%   Direction: 120°ESE
Pressure: 29.4"   Gusts: NA
Location:  59.77°N, 151.82°W
Report Text: PAHO 232153Z 12003KT 10SM BKN080 06/02 A2940 RMK AO2 RAB2054E2055 SLP957 P0000 T00560022 $
Loading
Personal Weather Stations






























Interactive Weather Map New forecast layout! Learn more

10-Day Weather Forecast

Advertisements
Track Severe Weather on mobile